createdAt,value
2023-05-03T00:02:26.214Z,100.00
2023-05-03T00:04:54.521Z,100.00
2023-05-03T00:07:23.059Z,100.00
2023-05-03T00:09:50.763Z,100.00
2023-05-03T00:12:18.514Z,100.00
2023-05-03T00:14:46.393Z,100.00
2023-05-03T00:17:14.424Z,100.00
2023-05-03T00:19:42.580Z,100.00
2023-05-03T00:22:10.590Z,100.00
2023-05-03T00:24:38.396Z,100.00
2023-05-03T00:27:06.745Z,100.00
2023-05-03T00:29:34.960Z,100.00
2023-05-03T00:32:04.353Z,100.00
2023-05-03T00:34:31.999Z,100.00
2023-05-03T00:36:59.909Z,100.00
2023-05-03T00:39:32.763Z,100.00
2023-05-03T00:42:02.156Z,100.00
2023-05-03T00:44:30.981Z,100.00
2023-05-03T00:46:59.134Z,100.00
2023-05-03T00:49:26.890Z,100.00
2023-05-03T00:51:54.823Z,100.00
2023-05-03T00:54:23.848Z,100.00
2023-05-03T00:56:52.537Z,100.00
2023-05-03T00:59:21.062Z,100.00
2023-05-03T01:01:53.074Z,100.00
2023-05-03T01:04:22.122Z,100.00
2023-05-03T01:07:02.786Z,100.00
2023-05-03T01:09:39.796Z,100.00
2023-05-03T01:12:32.402Z,100.00
2023-05-03T01:15:17.699Z,100.00
2023-05-03T01:18:12.528Z,100.00
2023-05-03T01:20:44.183Z,100.00
2023-05-03T01:23:18.870Z,100.00
2023-05-03T01:25:46.377Z,100.00
2023-05-03T01:28:14.521Z,100.00
2023-05-03T01:30:43.805Z,100.00
2023-05-03T01:33:28.823Z,100.00
2023-05-03T01:36:02.520Z,100.00
2023-05-03T01:38:36.668Z,100.00
2023-05-03T01:41:09.264Z,100.00
2023-05-03T01:43:38.219Z,100.00
2023-05-03T01:46:06.688Z,100.00
2023-05-03T01:48:34.305Z,100.00
2023-05-03T01:51:01.954Z,100.00
2023-05-03T01:53:29.514Z,100.00
2023-05-03T01:55:57.000Z,100.00
2023-05-03T01:58:25.081Z,100.00
2023-05-03T02:00:54.549Z,100.00
2023-05-03T02:03:22.644Z,100.00
2023-05-03T02:05:50.280Z,100.00
2023-05-03T02:08:18.752Z,100.00
2023-05-03T02:10:46.692Z,100.00
2023-05-03T02:13:16.708Z,100.00
2023-05-03T02:15:44.514Z,100.00
2023-05-03T02:18:12.104Z,100.00
2023-05-03T02:20:39.575Z,100.00
2023-05-03T02:23:07.089Z,100.00
2023-05-03T02:25:35.044Z,100.00
2023-05-03T02:28:03.295Z,100.00
2023-05-03T02:30:31.385Z,100.00
2023-05-03T02:32:59.071Z,100.00
2023-05-03T02:35:26.880Z,100.00
2023-05-03T02:37:54.964Z,100.00
2023-05-03T02:40:23.080Z,100.00
2023-05-03T02:42:51.911Z,100.00
2023-05-03T02:45:25.249Z,100.00
2023-05-03T02:47:53.036Z,100.00
2023-05-03T02:50:22.020Z,100.00
2023-05-03T02:52:50.106Z,100.00
2023-05-03T02:55:17.793Z,100.00
2023-05-03T02:57:46.776Z,100.00
2023-05-03T03:00:18.837Z,100.00
2023-05-03T03:02:46.968Z,100.00
2023-05-03T03:05:14.725Z,100.00
2023-05-03T03:07:47.672Z,100.00
2023-05-03T03:10:15.340Z,100.00
2023-05-03T03:12:43.653Z,100.00
2023-05-03T03:15:18.211Z,100.00
2023-05-03T03:17:46.640Z,100.00
2023-05-03T03:20:14.319Z,100.00
2023-05-03T03:22:45.876Z,100.00
2023-05-03T03:25:14.018Z,100.00
2023-05-03T03:27:41.616Z,100.00
2023-05-03T03:30:10.542Z,100.00
2023-05-03T03:32:46.745Z,100.00
2023-05-03T03:35:22.982Z,100.00
2023-05-03T03:37:51.942Z,100.00
2023-05-03T03:40:20.968Z,100.00
2023-05-03T03:42:49.686Z,100.00
2023-05-03T03:45:17.467Z,100.00
2023-05-03T03:47:45.621Z,100.00
2023-05-03T03:50:13.841Z,100.00
2023-05-03T03:52:42.167Z,100.00
2023-05-03T03:55:09.766Z,100.00
2023-05-03T03:57:37.748Z,100.00
2023-05-03T04:00:11.691Z,100.00
2023-05-03T04:02:49.077Z,100.00
2023-05-03T04:05:18.978Z,100.00
2023-05-03T04:07:47.224Z,100.00
2023-05-03T04:10:16.744Z,100.00
2023-05-03T04:12:44.871Z,100.00
2023-05-03T04:15:14.307Z,100.00
2023-05-03T04:17:44.934Z,100.00
2023-05-03T04:20:13.998Z,100.00
2023-05-03T04:22:46.423Z,100.00
2023-05-03T04:25:19.657Z,100.00
2023-05-03T04:27:56.652Z,100.00
2023-05-03T04:30:25.903Z,100.00
2023-05-03T04:32:58.613Z,100.00
2023-05-03T04:35:28.802Z,100.00
2023-05-03T04:37:58.536Z,100.00
2023-05-03T04:40:28.515Z,100.00
2023-05-03T04:43:02.906Z,100.00
2023-05-03T04:45:33.057Z,100.00
2023-05-03T04:48:01.606Z,100.00
2023-05-03T04:50:29.206Z,100.00
2023-05-03T04:52:56.719Z,100.00
2023-05-03T04:55:26.484Z,100.00
2023-05-03T04:57:56.675Z,100.00
2023-05-03T05:00:24.959Z,100.00
2023-05-03T05:02:59.438Z,100.00
2023-05-03T05:05:29.917Z,100.00
2023-05-03T05:08:00.126Z,100.00
2023-05-03T05:10:38.469Z,100.00
2023-05-03T05:13:07.835Z,100.00
2023-05-03T05:15:36.262Z,100.00
2023-05-03T05:18:04.576Z,100.00
2023-05-03T05:20:32.584Z,100.00
2023-05-03T05:23:00.924Z,100.00
2023-05-03T05:25:29.144Z,100.00
2023-05-03T05:27:57.886Z,100.00
2023-05-03T05:30:26.050Z,100.00
2023-05-03T05:32:54.301Z,100.00
2023-05-03T05:35:21.961Z,100.00
2023-05-03T05:37:49.946Z,100.00
2023-05-03T05:40:18.129Z,100.00
2023-05-03T05:42:51.159Z,100.00
2023-05-03T05:45:20.585Z,100.00
2023-05-03T05:47:51.622Z,100.00
2023-05-03T05:50:19.727Z,100.00
2023-05-03T05:52:56.146Z,100.00
2023-05-03T05:55:26.656Z,100.00
2023-05-03T05:57:56.082Z,100.00
2023-05-03T06:00:28.652Z,100.00
2023-05-03T06:02:56.967Z,100.00
2023-05-03T06:05:25.517Z,100.00
2023-05-03T06:07:54.382Z,100.00
2023-05-03T06:10:21.966Z,100.00
2023-05-03T06:12:53.163Z,100.00
2023-05-03T06:15:24.423Z,100.00
2023-05-03T06:17:52.177Z,100.00
2023-05-03T06:20:20.607Z,100.00
2023-05-03T06:22:50.968Z,100.00
2023-05-03T06:25:18.670Z,100.00
2023-05-03T06:27:49.961Z,100.00
2023-05-03T06:30:20.404Z,100.00
2023-05-03T06:32:49.426Z,100.00
2023-05-03T06:35:19.794Z,100.00
2023-05-03T06:37:48.528Z,100.00
2023-05-03T06:40:16.173Z,100.00
2023-05-03T06:42:44.164Z,100.00
2023-05-03T06:45:15.599Z,100.00
2023-05-03T06:47:43.802Z,100.00
2023-05-03T06:50:11.968Z,100.00
2023-05-03T06:52:39.925Z,100.00
2023-05-03T06:55:08.974Z,100.00
2023-05-03T06:57:36.427Z,100.00
2023-05-03T07:00:07.368Z,100.00
2023-05-03T07:02:35.758Z,100.00
2023-05-03T07:05:03.464Z,100.00
2023-05-03T07:07:31.137Z,100.00
2023-05-03T07:09:59.223Z,100.00
2023-05-03T07:12:28.461Z,100.00
2023-05-03T07:14:56.700Z,100.00
2023-05-03T07:17:24.910Z,100.00
2023-05-03T07:19:53.329Z,100.00
2023-05-03T07:22:25.024Z,100.00
2023-05-03T07:24:54.703Z,100.00
2023-05-03T07:27:22.856Z,100.00
2023-05-03T07:29:50.415Z,100.00
2023-05-03T07:32:18.170Z,100.00
2023-05-03T07:34:45.731Z,100.00
2023-05-03T07:37:13.758Z,100.00
2023-05-03T07:39:41.809Z,100.00
2023-05-03T07:42:10.136Z,100.00
2023-05-03T07:44:37.663Z,100.00
2023-05-03T07:47:05.640Z,100.00
2023-05-03T07:49:35.857Z,98.22
2023-05-03T07:52:04.061Z,96.47
2023-05-03T07:54:31.721Z,96.23
2023-05-03T07:56:59.530Z,95.21
2023-05-03T07:59:27.411Z,96.20
2023-05-03T08:01:55.668Z,95.09
2023-05-03T08:04:24.711Z,93.91
2023-05-03T08:06:52.662Z,93.99
2023-05-03T08:09:20.820Z,91.36
2023-05-03T08:11:48.825Z,88.87
2023-05-03T08:14:16.372Z,86.11
2023-05-03T08:16:44.511Z,84.15
2023-05-03T08:19:12.574Z,82.24
2023-05-03T08:21:40.239Z,80.75
2023-05-03T08:24:10.212Z,78.76
2023-05-03T08:26:38.057Z,75.59
2023-05-03T08:29:05.778Z,80.56
2023-05-03T08:31:33.651Z,72.81
2023-05-03T08:34:01.696Z,70.43
2023-05-03T08:36:29.562Z,69.90
2023-05-03T08:38:57.646Z,68.41
2023-05-03T08:41:30.870Z,65.82
2023-05-03T08:44:02.070Z,61.83
2023-05-03T08:46:29.694Z,61.31
2023-05-03T08:48:59.985Z,54.38
2023-05-03T08:51:28.243Z,50.68
2023-05-03T08:53:56.116Z,52.81
2023-05-03T08:56:35.354Z,50.35
2023-05-03T08:59:08.000Z,46.84
2023-05-03T09:01:37.206Z,44.74
2023-05-03T09:04:06.149Z,44.75
2023-05-03T09:06:34.532Z,46.19
2023-05-03T09:09:08.684Z,47.96
2023-05-03T09:11:39.137Z,60.84
2023-05-03T09:14:13.983Z,61.82
2023-05-03T09:16:44.723Z,58.70
2023-05-03T09:19:14.292Z,59.57
2023-05-03T09:21:44.087Z,55.35
2023-05-03T09:24:21.049Z,53.65
2023-05-03T09:26:51.177Z,48.21
2023-05-03T09:29:35.883Z,48.55
2023-05-03T09:32:08.841Z,50.23
2023-05-03T09:34:37.468Z,48.85
2023-05-03T09:37:05.077Z,47.02
2023-05-03T09:39:33.763Z,47.64
2023-05-03T09:42:15.383Z,47.34
2023-05-03T09:44:53.939Z,46.04
2023-05-03T09:47:22.518Z,45.69
2023-05-03T09:49:50.714Z,45.32
2023-05-03T09:52:18.294Z,47.89
2023-05-03T09:54:46.585Z,48.39
2023-05-03T09:57:15.103Z,47.62
2023-05-03T09:59:46.290Z,46.02
2023-05-03T10:02:15.045Z,42.98
2023-05-03T10:04:47.185Z,41.47
2023-05-03T10:07:18.357Z,38.27
2023-05-03T10:09:48.242Z,37.72
2023-05-03T10:12:19.187Z,37.25
2023-05-03T10:14:49.317Z,33.63
2023-05-03T10:17:32.001Z,34.79
2023-05-03T10:20:21.437Z,33.24
2023-05-03T10:23:21.266Z,32.63
2023-05-03T10:26:07.347Z,30.73
2023-05-03T10:28:37.115Z,31.77
2023-05-03T10:31:04.880Z,30.85
2023-05-03T10:33:35.194Z,30.20
2023-05-03T10:36:10.618Z,29.81
2023-05-03T10:38:39.118Z,30.86
2023-05-03T10:41:07.915Z,33.04
2023-05-03T10:43:35.876Z,33.95
2023-05-03T10:46:05.552Z,33.95
2023-05-03T10:48:34.707Z,31.12
2023-05-03T10:51:29.050Z,31.65
2023-05-03T10:53:56.742Z,32.40
2023-05-03T10:56:24.607Z,31.58
2023-05-03T10:58:56.116Z,32.87
2023-05-03T11:01:27.188Z,31.81
2023-05-03T11:04:01.005Z,32.88
2023-05-03T11:06:36.202Z,32.57
2023-05-03T11:09:09.472Z,36.14
2023-05-03T11:11:39.521Z,31.96
2023-05-03T11:14:08.715Z,32.07
2023-05-03T11:16:37.258Z,35.15
2023-05-03T11:19:06.588Z,34.88
2023-05-03T11:21:34.200Z,35.47
2023-05-03T11:24:02.100Z,35.27
2023-05-03T11:26:36.213Z,34.09
2023-05-03T11:29:04.262Z,34.02
2023-05-03T11:31:32.662Z,33.23
2023-05-03T11:34:00.794Z,33.75
2023-05-03T11:36:30.589Z,33.74
2023-05-03T11:38:58.638Z,34.08
2023-05-03T11:41:27.360Z,35.75
2023-05-03T11:44:04.015Z,34.52
2023-05-03T11:46:38.107Z,32.47
2023-05-03T11:49:06.294Z,30.36
2023-05-03T11:51:35.254Z,29.98
2023-05-03T11:54:17.044Z,31.66
2023-05-03T11:56:55.528Z,32.60
2023-05-03T11:59:35.884Z,30.29
2023-05-03T12:02:05.617Z,25.07
2023-05-03T12:04:33.695Z,24.49
2023-05-03T12:07:05.224Z,25.63
2023-05-03T12:09:35.343Z,25.65
2023-05-03T12:12:06.217Z,28.60
2023-05-03T12:15:00.635Z,29.92
2023-05-03T12:17:38.750Z,32.35
2023-05-03T12:23:09.863Z,30.00
2023-05-03T12:25:40.320Z,28.17
2023-05-03T12:28:20.430Z,28.58
2023-05-03T12:30:49.038Z,30.12
2023-05-03T12:33:21.674Z,32.67
2023-05-03T12:35:53.531Z,34.00
2023-05-03T12:38:24.161Z,33.73
2023-05-03T12:40:53.756Z,33.82
2023-05-03T12:43:22.176Z,35.26
2023-05-03T12:46:04.017Z,33.14
2023-05-03T12:48:37.800Z,32.03
2023-05-03T12:53:38.841Z,35.48
2023-05-03T12:56:07.344Z,35.63
2023-05-03T12:58:57.972Z,36.06
2023-05-03T13:02:05.993Z,36.16
2023-05-03T13:06:47.048Z,36.08
2023-05-03T13:09:21.784Z,36.79
2023-05-03T13:11:53.010Z,37.21
2023-05-03T13:14:21.936Z,37.12
2023-05-03T13:16:49.549Z,36.84
2023-05-03T13:19:17.401Z,36.39
2023-05-03T13:21:48.515Z,33.63
2023-05-03T13:24:16.877Z,32.54
2023-05-03T13:26:45.025Z,34.02
2023-05-03T13:29:12.787Z,33.97
2023-05-03T13:31:40.934Z,35.95
2023-05-03T13:34:08.623Z,34.07
2023-05-03T13:36:36.879Z,33.55
2023-05-03T13:39:04.538Z,27.81
2023-05-03T13:41:32.176Z,29.16
2023-05-03T13:44:00.290Z,25.96
2023-05-03T13:46:27.849Z,24.74
2023-05-03T13:48:56.696Z,26.29
2023-05-03T13:51:25.708Z,28.02
2023-05-03T13:53:53.342Z,33.38
2023-05-03T13:56:21.697Z,33.46
2023-05-03T13:58:49.185Z,32.26
2023-05-03T14:01:17.304Z,27.67
2023-05-03T14:03:47.387Z,26.14
2023-05-03T14:06:15.029Z,27.39
2023-05-03T14:08:42.621Z,30.80
2023-05-03T14:11:18.085Z,34.47
2023-05-03T14:13:56.234Z,36.24
2023-05-03T14:16:40.007Z,36.83
2023-05-03T14:19:14.213Z,36.13
2023-05-03T14:21:43.246Z,35.94
2023-05-03T14:24:11.004Z,36.00
2023-05-03T14:26:39.081Z,36.54
2023-05-03T14:29:07.283Z,36.50
2023-05-03T14:31:36.634Z,37.06
2023-05-03T14:34:04.371Z,37.53
2023-05-03T14:36:36.312Z,38.12
2023-05-03T14:39:05.054Z,39.06
2023-05-03T14:41:34.188Z,39.13
2023-05-03T14:44:02.293Z,38.00
2023-05-03T14:46:29.906Z,39.05
2023-05-03T14:48:57.525Z,39.71
2023-05-03T14:51:25.103Z,39.74
2023-05-03T14:53:53.083Z,40.29
2023-05-03T14:56:21.282Z,40.47
2023-05-03T14:58:48.727Z,40.47
2023-05-03T15:01:20.594Z,41.21
2023-05-03T15:03:49.373Z,41.73
2023-05-03T15:06:24.598Z,40.68
2023-05-03T15:08:52.573Z,41.92
2023-05-03T15:11:20.214Z,42.74
2023-05-03T15:13:48.528Z,45.78
2023-05-03T15:16:17.326Z,49.26
2023-05-03T15:18:51.304Z,52.19
2023-05-03T15:21:19.987Z,57.24
2023-05-03T15:23:49.652Z,61.69
2023-05-03T15:26:17.984Z,60.14
2023-05-03T15:28:46.333Z,58.41
2023-05-03T15:31:14.850Z,54.08
2023-05-03T15:33:43.873Z,53.13
2023-05-03T15:36:13.036Z,49.20
2023-05-03T15:38:41.639Z,46.41
2023-05-03T15:41:09.948Z,44.49
2023-05-03T15:43:37.957Z,44.23
2023-05-03T15:46:05.704Z,42.78
2023-05-03T15:48:33.883Z,43.51
2023-05-03T15:51:01.868Z,52.70
2023-05-03T15:53:29.980Z,49.39
2023-05-03T15:55:58.136Z,45.63
2023-05-03T15:58:32.098Z,38.68
2023-05-03T16:01:00.271Z,36.32
2023-05-03T16:03:29.791Z,31.56
2023-05-03T16:05:57.619Z,31.11
2023-05-03T16:08:25.369Z,29.91
2023-05-03T16:10:53.302Z,29.44
2023-05-03T16:13:21.285Z,30.74
2023-05-03T16:15:52.458Z,35.20
2023-05-03T16:18:21.065Z,36.71
2023-05-03T16:20:50.458Z,34.05
2023-05-03T16:23:18.053Z,30.88
2023-05-03T16:25:45.687Z,31.80
2023-05-03T16:28:13.484Z,36.66
2023-05-03T16:30:42.615Z,39.08
2023-05-03T16:33:10.404Z,39.59
2023-05-03T16:35:38.883Z,37.31
2023-05-03T16:38:07.329Z,34.97
2023-05-03T16:40:37.522Z,36.80
2023-05-03T16:43:07.083Z,38.24
2023-05-03T16:45:35.124Z,40.05
2023-05-03T16:48:06.079Z,42.21
2023-05-03T16:50:37.232Z,43.57
2023-05-03T16:53:04.853Z,41.94
2023-05-03T16:55:33.343Z,43.73
2023-05-03T16:58:00.905Z,43.66
2023-05-03T17:00:28.977Z,44.28
2023-05-03T17:02:57.011Z,43.74
2023-05-03T17:05:26.203Z,45.23
2023-05-03T17:07:54.398Z,47.93
2023-05-03T17:10:22.014Z,49.14
2023-05-03T17:12:49.634Z,49.04
2023-05-03T17:15:17.448Z,52.06
2023-05-03T17:17:45.613Z,53.12
2023-05-03T17:20:13.389Z,53.63
2023-05-03T17:22:41.348Z,52.84
2023-05-03T17:25:09.774Z,52.89
2023-05-03T17:27:38.161Z,52.48
2023-05-03T17:30:06.877Z,54.01
2023-05-03T17:32:35.034Z,55.71
2023-05-03T17:35:03.169Z,57.01
2023-05-03T17:37:31.108Z,57.17
2023-05-03T17:39:58.672Z,57.58
2023-05-03T17:42:26.580Z,56.53
2023-05-03T17:44:54.935Z,54.12
2023-05-03T17:47:25.174Z,53.39
2023-05-03T17:49:53.298Z,55.80
2023-05-03T17:52:20.874Z,55.11
2023-05-03T17:54:48.589Z,55.38
2023-05-03T17:57:16.934Z,54.85
2023-05-03T17:59:44.953Z,54.90
2023-05-03T18:02:13.501Z,56.14
2023-05-03T18:04:41.007Z,56.36
2023-05-03T18:07:08.692Z,57.23
2023-05-03T18:09:36.424Z,57.24
2023-05-03T18:12:04.195Z,58.34
2023-05-03T18:14:34.937Z,57.69
2023-05-03T18:17:02.821Z,58.88
2023-05-03T18:19:31.322Z,59.28
2023-05-03T18:21:59.283Z,59.18
2023-05-03T18:24:27.044Z,59.56
2023-05-03T18:26:54.648Z,58.50
2023-05-03T18:29:23.072Z,57.56
2023-05-03T18:31:52.427Z,55.79
2023-05-03T18:34:20.591Z,57.07
2023-05-03T18:36:48.612Z,56.92
2023-05-03T18:39:17.284Z,59.57
2023-05-03T18:41:45.037Z,59.99
2023-05-03T18:44:13.021Z,60.85
2023-05-03T18:46:40.638Z,61.19
2023-05-03T18:49:09.880Z,62.19
2023-05-03T18:51:38.456Z,61.94
2023-05-03T18:54:06.559Z,61.88
2023-05-03T18:56:34.759Z,63.31
2023-05-03T18:59:02.716Z,64.25
2023-05-03T19:01:31.110Z,67.31
2023-05-03T19:03:58.671Z,68.47
2023-05-03T19:06:27.322Z,69.48
2023-05-03T19:08:55.861Z,69.06
2023-05-03T19:11:25.237Z,70.43
2023-05-03T19:13:53.838Z,68.95
2023-05-03T19:16:21.450Z,68.91
2023-05-03T19:18:49.480Z,72.06
2023-05-03T19:21:17.635Z,69.79
2023-05-03T19:23:45.218Z,69.83
2023-05-03T19:26:13.394Z,69.60
2023-05-03T19:28:41.113Z,69.98
2023-05-03T19:31:09.052Z,68.51
2023-05-03T19:33:38.089Z,70.87
2023-05-03T19:36:08.508Z,68.99
2023-05-03T19:38:36.617Z,68.36
2023-05-03T19:41:12.782Z,68.99
2023-05-03T19:43:41.392Z,70.06
2023-05-03T19:46:09.518Z,70.18
2023-05-03T19:48:37.475Z,70.68
2023-05-03T19:51:05.959Z,70.94
2023-05-03T19:53:33.848Z,69.17
2023-05-03T19:56:03.048Z,73.02
2023-05-03T19:58:32.312Z,73.03
2023-05-03T20:00:59.847Z,72.87
2023-05-03T20:03:27.786Z,72.70
2023-05-03T20:05:55.650Z,72.08
2023-05-03T20:08:24.334Z,71.02
2023-05-03T20:10:52.147Z,73.17
2023-05-03T20:13:20.269Z,73.85
2023-05-03T20:15:49.161Z,75.70
2023-05-03T20:18:17.327Z,76.63
2023-05-03T20:20:45.855Z,76.33
2023-05-03T20:23:14.988Z,76.70
2023-05-03T20:25:43.313Z,77.23
2023-05-03T20:28:11.405Z,76.85
2023-05-03T20:30:38.997Z,78.22
2023-05-03T20:33:07.272Z,78.22
2023-05-03T20:35:36.974Z,79.03
2023-05-03T20:38:08.238Z,79.73
2023-05-03T20:40:36.390Z,78.54
2023-05-03T20:43:04.489Z,77.50
2023-05-03T20:45:32.197Z,77.98
2023-05-03T20:48:00.214Z,77.44
2023-05-03T20:50:28.236Z,77.09
2023-05-03T20:52:56.744Z,75.83
2023-05-03T20:55:24.330Z,76.43
2023-05-03T20:57:52.084Z,76.29
2023-05-03T21:00:22.237Z,78.69
2023-05-03T21:02:53.710Z,77.63
2023-05-03T21:05:22.240Z,75.77
2023-05-03T21:07:50.150Z,76.42
2023-05-03T21:10:18.125Z,75.93
2023-05-03T21:12:45.969Z,75.95
2023-05-03T21:15:13.547Z,74.41
2023-05-03T21:17:41.149Z,75.63
2023-05-03T21:20:09.384Z,75.72
2023-05-03T21:22:37.739Z,75.09
2023-05-03T21:25:06.720Z,73.55
2023-05-03T21:27:34.756Z,73.79
2023-05-03T21:30:02.698Z,75.91
2023-05-03T21:32:30.760Z,77.24
2023-05-03T21:34:58.660Z,77.47
2023-05-03T21:37:26.799Z,78.34
2023-05-03T21:40:01.561Z,79.14
2023-05-03T21:42:30.366Z,80.89
2023-05-03T21:44:57.935Z,78.28
2023-05-03T21:47:25.416Z,80.23
2023-05-03T21:49:53.507Z,80.81
2023-05-03T21:52:21.401Z,80.79
2023-05-03T21:54:49.160Z,81.19
2023-05-03T21:57:18.837Z,82.04
2023-05-03T21:59:47.427Z,81.92
2023-05-03T22:02:14.992Z,83.12
2023-05-03T22:04:43.628Z,86.42
2023-05-03T22:07:11.604Z,86.32
2023-05-03T22:09:39.233Z,85.57
2023-05-03T22:12:22.322Z,86.71
2023-05-03T22:14:52.350Z,85.64
2023-05-03T22:17:20.181Z,87.13
2023-05-03T22:19:48.147Z,86.03
2023-05-03T22:22:16.023Z,83.93
2023-05-03T22:24:43.868Z,85.48
2023-05-03T22:27:11.326Z,83.97
2023-05-03T22:29:39.416Z,84.51
2023-05-03T22:32:07.985Z,85.70
2023-05-03T22:34:36.274Z,87.20
2023-05-03T22:37:03.878Z,86.46
2023-05-03T22:39:32.403Z,85.18
2023-05-03T22:42:00.820Z,85.29
2023-05-03T22:44:28.719Z,86.44
2023-05-03T22:46:56.391Z,87.19
2023-05-03T22:49:24.752Z,87.33
2023-05-03T22:51:52.376Z,87.13
2023-05-03T22:54:21.805Z,88.25
2023-05-03T22:56:50.682Z,88.89
2023-05-03T22:59:19.204Z,87.79
2023-05-03T23:01:49.450Z,86.74
2023-05-03T23:04:17.166Z,88.77
2023-05-03T23:06:45.291Z,87.11
2023-05-03T23:09:13.037Z,90.11
2023-05-03T23:11:40.958Z,88.08
2023-05-03T23:14:08.480Z,90.88
2023-05-03T23:16:36.095Z,91.71
2023-05-03T23:19:04.174Z,90.83
2023-05-03T23:21:32.463Z,88.54
2023-05-03T23:24:00.240Z,88.53
2023-05-03T23:26:28.312Z,88.22
2023-05-03T23:28:56.283Z,86.88
2023-05-03T23:31:24.443Z,87.73
2023-05-03T23:33:52.463Z,87.84
2023-05-03T23:36:20.068Z,88.51
2023-05-03T23:38:50.207Z,90.51
2023-05-03T23:41:18.314Z,92.21
2023-05-03T23:43:46.317Z,93.45
2023-05-03T23:46:14.783Z,93.00
2023-05-03T23:48:42.791Z,91.85
2023-05-03T23:51:10.972Z,91.58
2023-05-03T23:53:39.114Z,91.10
2023-05-03T23:56:06.940Z,89.50
2023-05-03T23:58:34.451Z,90.33
